Time;durP1;ratioP1;P1;durP2;ratioP2;P2;SDS_P1;SDS_P2;PMS_P1;PMS_P2;Temp;Humidity;BMP_temperature;BMP_pressure;BME280_temperature;BME280_humidity;BME280_pressure;Samples;Min_cycle;Max_cycle;Signal;HPM_P1;HPM_P2
2021/12/11 00:01:05;;;;;;;52.45;27.42;;;10.00;59.10;;;;;;4927673;29;20035;-84
2021/12/11 00:03:36;;;;;;;46.22;25.45;;;10.30;58.50;;;;;;4937954;29;20395;-86
2021/12/11 00:06:10;;;;;;;45.28;25.42;;;10.60;57.70;;;;;;4955746;29;20125;-85
2021/12/11 00:08:36;;;;;;;49.08;25.25;;;10.70;57.40;;;;;;4956810;29;20190;-87
2021/12/11 00:11:09;;;;;;;52.08;27.33;;;10.70;57.30;;;;;;4940196;29;20035;-87
2021/12/11 00:13:38;;;;;;;52.58;26.40;;;10.60;57.70;;;;;;4940636;29;20082;-86
2021/12/11 00:16:06;;;;;;;51.53;27.13;;;10.80;57.10;;;;;;4940360;29;20348;-87
2021/12/11 00:18:33;;;;;;;53.55;27.38;;;10.60;57.60;;;;;;4940701;28;20475;-86
2021/12/11 00:21:05;;;;;;;48.42;25.15;;;10.50;57.50;;;;;;4936233;29;20071;-86
2021/12/11 00:23:56;;;;;;;45.90;24.10;;;10.60;57.40;;;;;;4940500;29;20026;-87
2021/12/11 00:26:30;;;;;;;45.38;22.77;;;10.20;58.00;;;;;;4929851;29;20075;-86
2021/12/11 00:28:56;;;;;;;46.95;25.15;;;10.00;58.80;;;;;;4921545;29;20048;-87
2021/12/11 00:31:23;;;;;;;48.97;25.45;;;9.80;59.20;;;;;;4921501;29;20086;-86
2021/12/11 00:33:50;;;;;;;47.47;24.98;;;10.20;58.50;;;;;;4928024;29;20024;-86
2021/12/11 00:36:20;;;;;;;49.33;25.63;;;10.30;58.00;;;;;;4939374;28;20059;-85
2021/12/11 00:38:49;;;;;;;46.30;25.13;;;10.30;57.90;;;;;;5032072;28;20025;-85
2021/12/11 00:41:18;;;;;;;47.47;24.98;;;10.40;57.40;;;;;;5045639;28;20048;-84
2021/12/11 00:43:46;;;;;;;52.20;26.00;;;10.10;58.00;;;;;;5051333;28;20025;-85
2021/12/11 00:46:22;;;;;;;51.17;25.05;;;9.90;58.80;;;;;;5031820;28;20299;-85
2021/12/11 00:48:48;;;;;;;54.90;25.60;;;10.10;58.30;;;;;;5033664;28;20018;-84
2021/12/11 00:51:18;;;;;;;52.80;27.08;;;10.40;58.10;;;;;;5031305;28;20091;-85
2021/12/11 00:53:54;;;;;;;53.33;26.25;;;10.40;58.00;;;;;;5031583;28;20045;-87
2021/12/11 00:56:22;;;;;;;52.75;25.83;;;9.90;58.50;;;;;;5029980;28;20030;-85
2021/12/11 00:58:50;;;;;;;49.50;25.92;;;9.80;58.90;;;;;;5030903;28;20063;-85
2021/12/11 01:01:27;;;;;;;50.10;25.13;;;10.10;58.50;;;;;;5041187;28;20018;-87
2021/12/11 01:04:00;;;;;;;51.10;25.55;;;10.10;58.60;;;;;;5029483;28;20029;-87
2021/12/11 01:06:30;;;;;;;46.38;23.50;;;10.20;58.30;;;;;;5021128;28;20374;-87
2021/12/11 01:09:11;;;;;;;49.75;24.95;;;10.20;58.40;;;;;;5051466;28;20377;-87
2021/12/11 01:11:50;;;;;;;48.53;25.73;;;10.30;58.10;;;;;;5030997;28;20095;-85
2021/12/11 01:14:33;;;;;;;56.37;25.70;;;10.30;57.80;;;;;;5031531;28;20025;-86
2021/12/11 01:17:08;;;;;;;50.33;25.25;;;10.50;57.60;;;;;;5028452;28;20061;-85
2021/12/11 01:19:39;;;;;;;50.63;26.45;;;10.60;57.30;;;;;;5022049;28;20484;-88
2021/12/11 01:22:20;;;;;;;;;;;10.60;57.40;;;;;;5034668;28;20036;-87
2021/12/11 01:24:52;;;;;;;52.90;26.48;;;10.50;57.80;;;;;;5034487;28;19911;-86
2021/12/11 01:27:23;;;;;;;56.17;27.63;;;10.20;58.50;;;;;;5032037;28;20026;-85
2021/12/11 01:29:50;;;;;;;46.35;24.52;;;10.30;58.20;;;;;;5031668;28;20025;-87
2021/12/11 01:32:17;;;;;;;55.15;26.92;;;10.40;58.10;;;;;;5033736;28;20039;-88
2021/12/11 01:34:44;;;;;;;53.72;26.48;;;10.50;58.10;;;;;;5033661;28;20021;-87
2021/12/11 01:37:11;;;;;;;53.85;26.65;;;10.60;57.90;;;;;;5030594;28;20481;-86
2021/12/11 01:39:39;;;;;;;54.00;26.63;;;10.50;57.70;;;;;;5030709;28;20072;-85
2021/12/11 01:42:16;;;;;;;51.00;26.65;;;10.30;58.20;;;;;;5030837;28;20025;-84
2021/12/11 01:44:45;;;;;;;56.55;27.95;;;10.10;58.60;;;;;;5031584;28;20099;-84
2021/12/11 01:47:21;;;;;;;59.53;28.83;;;10.30;58.30;;;;;;5050597;28;20029;-85
2021/12/11 01:49:56;;;;;;;56.92;27.05;;;10.40;58.20;;;;;;5049969;28;20032;-84
2021/12/11 01:56:25;;;;;;;55.75;27.02;;;10.00;58.80;;;;;;4992922;28;20049;-86
2021/12/11 01:59:14;;;;;;;54.15;25.73;;;10.20;58.80;;;;;;4968761;28;20026;-86
2021/12/11 02:01:46;;;;;;;54.08;27.30;;;10.00;58.90;;;;;;4957847;28;20030;-87
2021/12/11 02:04:16;;;;;;;53.75;27.02;;;9.60;60.20;;;;;;4967267;28;20486;-87
2021/12/11 02:06:45;;;;;;;46.22;22.17;;;9.50;60.20;;;;;;4976302;28;20038;-87
2021/12/11 02:09:22;;;;;;;55.03;27.15;;;9.60;60.10;;;;;;4975593;28;20109;-87
2021/12/11 02:11:52;;;;;;;52.92;26.52;;;9.70;59.90;;;;;;4976006;28;20034;-87
2021/12/11 02:14:24;;;;;;;39.35;20.38;;;9.80;59.80;;;;;;4975335;28;20030;-87
2021/12/11 02:16:59;;;;;;;58.80;27.40;;;9.80;60.00;;;;;;4964411;28;20129;-84
2021/12/11 02:19:31;;;;;;;52.47;26.23;;;10.00;59.30;;;;;;4976727;28;20125;-86
2021/12/11 02:22:08;;;;;;;50.75;25.35;;;10.40;58.80;;;;;;4976549;28;20058;-85
2021/12/11 02:24:36;;;;;;;62.88;28.52;;;10.30;58.40;;;;;;4976514;28;20626;-85
2021/12/11 02:27:11;;;;;;;53.08;25.73;;;10.10;59.60;;;;;;4976601;28;20062;-87
2021/12/11 02:29:44;;;;;;;55.47;27.80;;;10.20;58.70;;;;;;4976669;28;20073;-86
2021/12/11 02:32:28;;;;;;;53.22;25.77;;;10.00;59.30;;;;;;4988981;28;20057;-85
2021/12/11 02:35:13;;;;;;;52.33;25.58;;;9.90;59.50;;;;;;5029391;28;20389;-88
2021/12/11 02:37:45;;;;;;;49.45;24.73;;;9.70;60.00;;;;;;5042582;28;20026;-85
2021/12/11 02:40:38;;;;;;;45.42;24.20;;;9.40;60.80;;;;;;5048535;28;20026;-88
2021/12/11 02:43:06;;;;;;;51.08;24.20;;;8.80;62.10;;;;;;5032970;28;20033;-85
2021/12/11 02:45:46;;;;;;;49.20;25.00;;;8.40;63.20;;;;;;5038619;28;20029;-85
2021/12/11 02:48:28;;;;;;;;;;;8.30;63.60;;;;;;5033363;28;20025;-86
2021/12/11 02:51:09;;;;;;;51.20;24.20;;;8.40;63.90;;;;;;5032462;28;19920;-85
2021/12/11 02:53:54;;;;;;;48.13;22.88;;;8.70;63.10;;;;;;5032808;28;20025;-86
2021/12/11 02:56:27;;;;;;;41.90;20.58;;;8.70;62.80;;;;;;5029097;28;20370;-87
2021/12/11 02:58:58;;;;;;;48.88;22.67;;;8.50;63.20;;;;;;5029449;28;20072;-87
2021/12/11 03:01:29;;;;;;;46.50;22.95;;;8.60;63.60;;;;;;5043840;28;20024;-88
2021/12/11 03:04:25;;;;;;;42.17;20.85;;;8.90;62.60;;;;;;5049093;28;20033;-88
2021/12/11 03:06:54;;;;;;;48.22;23.52;;;9.40;61.50;;;;;;5027303;28;20030;-87
2021/12/11 03:09:24;;;;;;;47.53;22.55;;;9.60;61.20;;;;;;5032139;28;20034;-87
2021/12/11 03:11:53;;;;;;;55.08;24.55;;;9.70;60.80;;;;;;5044015;28;20047;-87
2021/12/11 03:14:21;;;;;;;50.23;23.27;;;9.80;60.30;;;;;;5016384;28;20040;-87
2021/12/11 03:16:50;;;;;;;50.50;24.20;;;9.90;60.30;;;;;;5029244;28;20275;-87
2021/12/11 03:19:20;;;;;;;56.92;24.45;;;10.10;59.90;;;;;;5039525;28;20045;-87
2021/12/11 03:21:47;;;;;;;55.58;25.52;;;10.20;59.90;;;;;;5023007;28;20444;-88
2021/12/11 03:24:13;;;;;;;55.92;24.95;;;10.20;60.00;;;;;;5038179;28;20071;-88
2021/12/11 03:26:41;;;;;;;48.72;22.95;;;10.20;59.70;;;;;;5036101;28;20064;-88
2021/12/11 03:29:08;;;;;;;47.47;22.65;;;10.00;60.00;;;;;;5020040;28;20026;-87
2021/12/11 03:31:37;;;;;;;46.00;23.10;;;10.00;59.80;;;;;;5023658;28;20041;-88
2021/12/11 03:34:05;;;;;;;51.08;23.40;;;10.10;59.70;;;;;;5020273;28;20029;-87
2021/12/11 03:36:33;;;;;;;44.03;21.08;;;9.90;60.00;;;;;;5023786;28;20021;-87
2021/12/11 03:39:09;;;;;;;48.03;21.92;;;9.80;60.00;;;;;;5036319;28;20465;-87
2021/12/11 03:41:35;;;;;;;43.20;21.42;;;9.70;60.20;;;;;;5055421;28;20055;-87
2021/12/11 03:44:01;;;;;;;40.30;20.80;;;9.20;61.00;;;;;;5039598;28;20074;-87
2021/12/11 03:46:27;;;;;;;42.20;20.33;;;9.20;61.50;;;;;;5036394;28;20025;-87
2021/12/11 03:48:57;;;;;;;43.60;21.30;;;9.20;61.80;;;;;;5019664;28;20473;-88
2021/12/11 03:51:28;;;;;;;43.80;21.48;;;9.40;61.10;;;;;;5020981;28;20544;-88
2021/12/11 03:53:54;;;;;;;52.75;23.40;;;9.60;60.70;;;;;;5034953;28;20538;-87
2021/12/11 03:56:20;;;;;;;42.58;19.88;;;9.90;60.20;;;;;;5036346;28;20032;-86
2021/12/11 03:58:51;;;;;;;49.67;22.52;;;9.90;59.50;;;;;;5039245;28;20029;-86
2021/12/11 04:01:32;;;;;;;44.40;21.80;;;9.80;59.90;;;;;;5038893;28;20029;-87
2021/12/11 04:04:06;;;;;;;44.40;20.48;;;10.10;59.70;;;;;;5039243;28;20388;-87
2021/12/11 04:06:32;;;;;;;39.63;20.00;;;10.40;58.80;;;;;;5036022;28;20431;-86
2021/12/11 04:09:04;;;;;;;39.65;19.90;;;10.30;58.80;;;;;;5019345;28;20026;-88
2021/12/11 04:11:32;;;;;;;44.03;20.85;;;10.40;59.00;;;;;;5053938;28;20044;-87
2021/12/11 04:14:04;;;;;;;49.47;23.33;;;10.50;58.30;;;;;;5034112;28;20025;-87
2021/12/11 04:16:30;;;;;;;46.13;22.25;;;10.60;58.50;;;;;;5031812;28;20033;-86
2021/12/11 04:18:56;;;;;;;40.28;19.40;;;10.70;58.40;;;;;;5055219;28;20037;-87
2021/12/11 04:21:22;;;;;;;56.72;23.45;;;10.30;58.80;;;;;;5035386;28;20040;-87
2021/12/11 04:23:49;;;;;;;51.22;22.65;;;10.00;60.00;;;;;;5036200;28;20025;-86
2021/12/11 04:26:14;;;;;;;48.05;22.38;;;10.30;59.70;;;;;;5037103;28;20488;-86
2021/12/11 04:28:41;;;;;;;47.03;21.88;;;10.20;59.70;;;;;;5038762;28;20029;-87
2021/12/11 04:31:13;;;;;;;49.88;22.73;;;10.20;59.20;;;;;;5033573;28;20063;-87
2021/12/11 04:33:48;;;;;;;44.13;20.85;;;10.00;59.60;;;;;;5019360;28;20022;-87
2021/12/11 04:36:18;;;;;;;45.80;21.70;;;10.00;59.60;;;;;;5032824;28;20029;-87
2021/12/11 04:38:45;;;;;;;42.78;19.48;;;9.90;59.90;;;;;;5037064;28;20025;-87
2021/12/11 04:41:17;;;;;;;46.10;21.08;;;9.80;60.30;;;;;;5038033;28;20040;-87
2021/12/11 04:43:43;;;;;;;51.38;22.40;;;9.90;60.00;;;;;;5038227;28;20025;-87
2021/12/11 04:46:10;;;;;;;48.53;21.95;;;10.20;59.60;;;;;;5038186;28;20025;-86
2021/12/11 04:51:33;;;;;;;58.60;22.52;;;10.00;59.60;;;;;;5055459;28;20542;-87
2021/12/11 04:56:59;;;;;;;46.03;21.48;;;9.50;60.80;;;;;;5050755;28;20029;-86
2021/12/11 05:00:07;;;;;;;43.47;21.17;;;9.40;60.60;;;;;;5055408;28;20028;-87
2021/12/11 05:10:11;;;;;;;41.85;21.00;;;9.60;60.10;;;;;;5056274;28;20079;-87
2021/12/11 05:12:37;;;;;;;42.75;21.92;;;9.80;60.30;;;;;;5027084;28;20040;-86
2021/12/11 05:15:27;;;;;;;41.45;19.38;;;9.50;60.50;;;;;;5032240;28;20025;-85
2021/12/11 05:17:54;;;;;;;43.22;20.65;;;9.70;60.50;;;;;;5026097;28;20036;-86
2021/12/11 05:20:25;;;;;;;41.10;20.42;;;10.00;59.20;;;;;;5034189;28;20049;-87
2021/12/11 05:22:51;;;;;;;42.15;20.05;;;9.90;59.40;;;;;;5020197;28;20389;-87
2021/12/11 05:25:17;;;;;;;39.22;20.17;;;9.80;59.70;;;;;;5021647;28;20481;-88
2021/12/11 05:27:45;;;;;;;40.60;20.30;;;9.60;59.90;;;;;;5022586;28;20033;-87
2021/12/11 05:30:16;;;;;;;39.55;19.77;;;9.50;60.00;;;;;;5024461;28;20029;-87
2021/12/11 05:32:43;;;;;;;39.78;19.58;;;9.60;60.10;;;;;;5037550;28;20033;-87
2021/12/11 05:35:09;;;;;;;40.60;20.20;;;9.90;59.40;;;;;;5037115;28;20024;-87
2021/12/11 05:37:36;;;;;;;39.15;19.48;;;10.00;59.70;;;;;;5037165;28;20476;-86
2021/12/11 05:40:03;;;;;;;45.63;21.40;;;10.30;58.90;;;;;;5036467;28;20032;-86
2021/12/11 05:42:29;;;;;;;39.65;20.00;;;10.50;58.60;;;;;;4677421;28;10000528;-86
2021/12/11 05:44:55;;;;;;;45.95;22.50;;;10.10;59.10;;;;;;5018046;28;20043;-86
2021/12/11 05:47:21;;;;;;;37.30;19.38;;;10.20;59.30;;;;;;5036770;28;20025;-87
2021/12/11 05:49:47;;;;;;;42.63;20.63;;;10.20;58.90;;;;;;5033338;28;20074;-88
2021/12/11 05:52:13;;;;;;;50.45;22.95;;;9.70;60.30;;;;;;5016665;28;20045;-86
2021/12/11 05:54:41;;;;;;;48.38;22.95;;;9.80;59.80;;;;;;5019516;28;20025;-88
2021/12/11 05:57:11;;;;;;;49.83;21.35;;;10.20;59.40;;;;;;5036328;28;20025;-88
2021/12/11 05:59:40;;;;;;;46.90;21.33;;;10.50;58.70;;;;;;5036376;28;20021;-87
2021/12/11 06:02:21;;;;;;;43.13;19.65;;;10.40;58.70;;;;;;5035819;28;20120;-86
2021/12/11 06:04:50;;;;;;;46.05;20.88;;;10.30;58.60;;;;;;5036391;28;20083;-87
2021/12/11 06:07:18;;;;;;;46.08;21.35;;;10.30;58.60;;;;;;5032883;28;20035;-89
2021/12/11 06:09:48;;;;;;;48.28;23.13;;;10.50;58.40;;;;;;5016663;28;20064;-86
2021/12/11 06:12:15;;;;;;;;;;;10.20;59.00;;;;;;5036489;28;20127;-89
2021/12/11 06:14:47;;;;;;;43.38;22.63;;;10.10;59.40;;;;;;5036044;28;20344;-84
2021/12/11 06:17:19;;;;;;;41.13;20.52;;;10.40;58.80;;;;;;5035723;28;20484;-86
2021/12/11 06:19:51;;;;;;;46.15;21.75;;;10.20;59.20;;;;;;5031820;28;20136;-85
2021/12/11 06:22:27;;;;;;;51.53;24.55;;;10.40;58.60;;;;;;5032399;28;20099;-84
2021/12/11 06:24:56;;;;;;;43.08;21.92;;;10.10;59.60;;;;;;5032109;28;20029;-84
2021/12/11 06:27:23;;;;;;;44.47;22.02;;;10.10;59.50;;;;;;5032348;28;20027;-84
2021/12/11 06:29:50;;;;;;;41.10;20.00;;;10.20;59.40;;;;;;5032355;28;20052;-84
2021/12/11 06:32:16;;;;;;;46.13;21.58;;;10.30;58.70;;;;;;5032310;28;20033;-87
2021/12/11 06:34:42;;;;;;;50.42;23.05;;;10.30;58.90;;;;;;5026489;28;20033;-86
2021/12/11 06:37:10;;;;;;;51.00;23.95;;;10.40;59.00;;;;;;5013593;28;20026;-86
2021/12/11 06:39:37;;;;;;;76.78;35.25;;;10.30;59.60;;;;;;5012467;28;20064;-88
2021/12/11 06:42:06;;;;;;;53.88;26.15;;;10.20;59.30;;;;;;5012331;28;20029;-86
2021/12/11 06:44:33;;;;;;;44.88;21.25;;;9.80;59.80;;;;;;5020332;28;20140;-85
2021/12/11 06:47:01;;;;;;;46.97;23.45;;;9.70;60.70;;;;;;5030687;28;20404;-87
2021/12/11 06:49:29;;;;;;;54.25;27.08;;;9.50;60.70;;;;;;5032323;28;20069;-86
2021/12/11 06:51:56;;;;;;;51.08;28.13;;;9.50;61.30;;;;;;5024085;28;20041;-85
2021/12/11 06:54:25;;;;;;;54.80;27.77;;;9.60;60.90;;;;;;5011920;28;20057;-86
2021/12/11 06:56:52;;;;;;;51.20;25.67;;;9.70;61.10;;;;;;5011562;28;20121;-85
2021/12/11 06:59:17;;;;;;;54.53;24.33;;;10.00;59.80;;;;;;5016083;28;20061;-84
2021/12/11 07:01:43;;;;;;;47.63;23.58;;;10.20;59.60;;;;;;5024218;28;20057;-82
2021/12/11 07:04:11;;;;;;;48.28;26.23;;;10.60;59.00;;;;;;5011945;28;20041;-84
2021/12/11 07:06:39;;;;;;;68.47;36.92;;;10.50;58.60;;;;;;5028374;28;20032;-85
2021/12/11 07:09:07;;;;;;;49.40;27.02;;;10.00;59.70;;;;;;5022101;28;20113;-85
2021/12/11 07:11:34;;;;;;;62.92;28.35;;;9.70;60.50;;;;;;5020478;28;20107;-85
2021/12/11 07:13:59;;;;;;;43.88;25.02;;;9.30;60.30;;;;;;5028482;28;20033;-85
2021/12/11 07:16:25;;;;;;;29.75;15.13;;;8.40;62.60;;;;;;5027980;28;20030;-86
2021/12/11 07:18:51;;;;;;;24.73;12.88;;;7.80;64.20;;;;;;5012866;28;20034;-87
2021/12/11 07:21:18;;;;;;;28.95;16.38;;;8.00;63.90;;;;;;5015233;28;20124;-85
2021/12/11 07:23:48;;;;;;;23.77;13.15;;;8.30;63.50;;;;;;5032519;28;20150;-85
2021/12/11 07:26:30;;;;;;;22.98;12.38;;;8.90;62.20;;;;;;5035391;28;20029;-86
2021/12/11 07:28:59;;;;;;;29.73;15.10;;;9.40;60.60;;;;;;5035244;28;20087;-85
2021/12/11 07:31:25;;;;;;;28.65;15.32;;;10.00;59.20;;;;;;5035582;28;20029;-85
2021/12/11 07:33:52;;;;;;;44.90;22.15;;;10.10;58.80;;;;;;5035147;28;20036;-84
2021/12/11 07:36:20;;;;;;;65.57;31.17;;;10.10;59.20;;;;;;5034921;28;20025;-85
2021/12/11 07:38:46;;;;;;;46.55;24.27;;;10.50;58.70;;;;;;5034654;28;20495;-84
2021/12/11 07:41:14;;;;;;;34.50;18.48;;;10.80;57.70;;;;;;5034709;28;20049;-86
2021/12/11 07:43:42;;;;;;;34.30;18.30;;;10.80;57.60;;;;;;5031812;28;20032;-85
2021/12/11 07:46:13;;;;;;;40.25;19.98;;;11.10;57.20;;;;;;5015037;28;20116;-87
2021/12/11 07:48:40;;;;;;;43.60;22.95;;;11.30;56.70;;;;;;5030199;28;20121;-86
2021/12/11 07:51:07;;;;;;;65.72;33.55;;;11.30;56.50;;;;;;5034825;28;20120;-86
2021/12/11 07:53:33;;;;;;;49.63;27.83;;;11.00;57.40;;;;;;5031400;28;20021;-88
2021/12/11 07:56:00;;;;;;;68.50;34.60;;;10.80;58.30;;;;;;5015287;28;20029;-86
2021/12/11 07:58:29;;;;;;;52.67;26.95;;;10.80;58.20;;;;;;5032808;28;20024;-86
2021/12/11 08:00:55;;;;;;;40.05;20.23;;;11.00;58.00;;;;;;5035360;28;20032;-87
2021/12/11 08:03:21;;;;;;;51.17;26.23;;;11.20;57.40;;;;;;5035289;28;20029;-87
2021/12/11 08:05:50;;;;;;;50.00;24.35;;;11.10;57.70;;;;;;5034905;28;20025;-84
2021/12/11 08:08:16;;;;;;;39.67;19.27;;;11.10;57.30;;;;;;5032137;28;20116;-83
2021/12/11 08:10:45;;;;;;;34.67;19.00;;;11.40;57.10;;;;;;5029059;28;20032;-86
2021/12/11 08:13:11;;;;;;;36.25;18.88;;;11.40;57.00;;;;;;5038831;28;20052;-83
2021/12/11 08:15:38;;;;;;;35.33;17.65;;;11.60;56.70;;;;;;5038500;28;20024;-84
2021/12/11 08:18:07;;;;;;;50.50;26.80;;;11.50;56.60;;;;;;5038813;28;20103;-86
2021/12/11 08:20:34;;;;;;;54.75;28.13;;;11.60;56.40;;;;;;5038681;28;20453;-85
2021/12/11 08:23:00;;;;;;;47.72;25.23;;;11.50;56.80;;;;;;5037413;28;20091;-85
2021/12/11 08:25:28;;;;;;;44.60;24.15;;;11.60;56.50;;;;;;5038752;28;20025;-85
2021/12/11 08:27:55;;;;;;;46.45;25.45;;;11.70;56.30;;;;;;5038550;28;20078;-84
2021/12/11 08:30:23;;;;;;;69.95;35.97;;;11.70;56.30;;;;;;5038681;28;20021;-85
2021/12/11 08:32:49;;;;;;;74.10;39.15;;;11.80;56.10;;;;;;5038693;28;20487;-85
2021/12/11 08:35:15;;;;;;;64.38;30.15;;;11.80;56.10;;;;;;5019140;28;20030;-84
2021/12/11 08:37:45;;;;;;;43.13;23.95;;;11.90;56.10;;;;;;5019550;28;20086;-85
2021/12/11 08:40:17;;;;;;;76.47;41.30;;;11.90;55.80;;;;;;5018555;28;20022;-85
2021/12/11 08:42:43;;;;;;;94.00;42.42;;;11.90;55.70;;;;;;5018994;28;20061;-87
2021/12/11 08:45:11;;;;;;;72.68;35.45;;;11.60;56.00;;;;;;5024249;28;20112;-84
2021/12/11 08:47:41;;;;;;;57.53;30.92;;;11.60;56.20;;;;;;5038525;28;20033;-87
2021/12/11 08:50:13;;;;;;;38.97;19.75;;;10.90;56.70;;;;;;5038544;28;20472;-86
2021/12/11 08:52:42;;;;;;;135.93;89.25;;;10.90;57.50;;;;;;5034774;28;20041;-85
2021/12/11 08:55:15;;;;;;;35.55;20.40;;;11.00;57.20;;;;;;5018363;28;20049;-86
2021/12/11 08:57:41;;;;;;;32.95;18.63;;;10.60;57.80;;;;;;5018951;28;20089;-87
2021/12/11 09:00:33;;;;;;;42.67;25.92;;;10.10;59.40;;;;;;5021757;28;20017;-86
2021/12/11 09:03:16;;;;;;;41.00;22.77;;;10.20;59.70;;;;;;5018171;28;20476;-86
2021/12/11 09:05:47;;;;;;;56.90;33.25;;;10.70;58.70;;;;;;5018549;28;20120;-87
2021/12/11 09:08:19;;;;;;;35.72;20.65;;;10.90;58.00;;;;;;5018289;28;20112;-87
2021/12/11 09:10:52;;;;;;;35.10;19.45;;;11.30;57.10;;;;;;5018117;28;20049;-86
2021/12/11 09:13:31;;;;;;;24.00;13.38;;;11.60;56.80;;;;;;5018398;28;20082;-85
2021/12/11 09:16:11;;;;;;;24.45;12.73;;;11.70;56.00;;;;;;5018236;28;20060;-86
2021/12/11 09:19:01;;;;;;;25.92;15.05;;;11.60;56.60;;;;;;5018024;28;20500;-85
2021/12/11 09:21:36;;;;;;;23.25;13.93;;;11.70;56.30;;;;;;5022903;28;20034;-85
2021/12/11 09:24:22;;;;;;;22.52;13.52;;;11.70;56.70;;;;;;5027003;28;20556;-84
2021/12/11 09:26:56;;;;;;;32.92;18.77;;;11.90;55.90;;;;;;5021083;28;20115;-84
2021/12/11 09:29:31;;;;;;;39.00;21.35;;;12.00;56.00;;;;;;5017929;28;20507;-83
2021/12/11 09:32:14;;;;;;;34.78;19.77;;;12.20;55.80;;;;;;5026109;28;20037;-84
2021/12/11 09:34:58;;;;;;;49.25;27.80;;;12.30;55.60;;;;;;5035547;28;20044;-85
2021/12/11 09:37:25;;;;;;;51.92;35.20;;;12.40;55.20;;;;;;5037604;28;20036;-85
2021/12/11 09:39:59;;;;;;;27.77;18.27;;;12.30;55.50;;;;;;5037488;28;20028;-86
2021/12/11 09:42:24;;;;;;;31.73;20.20;;;12.30;54.90;;;;;;5017719;28;20112;-85
2021/12/11 09:44:59;;;;;;;24.98;13.80;;;12.10;55.20;;;;;;5017579;28;20162;-85
2021/12/11 09:47:35;;;;;;;48.80;36.28;;;12.00;55.70;;;;;;4345557;28;10000308;-86
2021/12/11 09:50:09;;;;;;;20.05;11.35;;;12.10;56.10;;;;;;5036698;28;20021;-87
2021/12/11 09:52:37;;;;;;;26.13;15.82;;;11.90;55.80;;;;;;5038084;28;20048;-85
2021/12/11 09:55:06;;;;;;;23.10;13.48;;;12.00;55.90;;;;;;5038081;28;20159;-86
2021/12/11 09:57:36;;;;;;;28.98;18.92;;;12.00;55.90;;;;;;5032948;28;20029;-85
2021/12/11 10:00:13;;;;;;;20.48;11.85;;;12.20;55.60;;;;;;5018444;28;20372;-86
2021/12/11 10:02:40;;;;;;;20.67;13.60;;;12.30;55.20;;;;;;5018306;28;20480;-86
2021/12/11 10:05:18;;;;;;;18.90;11.02;;;12.40;54.60;;;;;;5018920;28;20115;-84
2021/12/11 10:08:01;;;;;;;22.85;16.15;;;12.20;54.50;;;;;;5031271;28;20025;-86
2021/12/11 10:10:27;;;;;;;33.47;28.73;;;12.10;55.30;;;;;;5017843;28;20068;-86
2021/12/11 10:12:57;;;;;;;19.63;11.90;;;12.20;55.10;;;;;;5018115;28;20061;-86
2021/12/11 10:15:31;;;;;;;49.92;33.08;;;12.00;55.40;;;;;;5018251;28;20028;-86
2021/12/11 10:18:14;;;;;;;34.90;22.15;;;12.10;55.40;;;;;;5018284;28;20037;-86
2021/12/11 10:20:50;;;;;;;46.78;30.70;;;12.30;55.30;;;;;;5017840;28;20419;-85
2021/12/11 10:23:22;;;;;;;35.25;22.35;;;12.20;55.40;;;;;;5017724;28;20024;-86
2021/12/11 10:25:49;;;;;;;79.32;59.22;;;12.20;55.40;;;;;;5016504;28;20021;-85
2021/12/11 10:28:19;;;;;;;17.88;11.60;;;12.00;55.50;;;;;;5015351;28;20035;-81
2021/12/11 10:30:50;;;;;;;32.10;20.95;;;11.70;55.20;;;;;;5016586;28;20021;-83
2021/12/11 10:33:20;;;;;;;23.33;17.17;;;11.20;56.40;;;;;;5015766;28;20035;-84
2021/12/11 10:35:49;;;;;;;54.10;41.80;;;11.20;56.60;;;;;;5016411;28;20026;-84
2021/12/11 10:38:16;;;;;;;41.03;36.70;;;11.20;56.60;;;;;;5016524;28;20029;-84
2021/12/11 10:40:53;;;;;;;27.55;20.75;;;10.90;57.00;;;;;;5016385;28;20025;-84
2021/12/11 10:43:23;;;;;;;21.80;13.48;;;11.10;57.30;;;;;;5016582;28;20441;-88
2021/12/11 10:45:50;;;;;;;21.05;11.88;;;11.40;56.10;;;;;;5016547;28;20025;-86
2021/12/11 10:48:24;;;;;;;17.85;11.27;;;11.30;56.30;;;;;;5016895;28;20045;-87
2021/12/11 10:50:58;;;;;;;17.63;10.30;;;10.80;57.20;;;;;;5016976;28;20021;-87
2021/12/11 10:53:27;;;;;;;18.08;10.25;;;10.90;57.30;;;;;;5016698;28;20060;-87
2021/12/11 10:55:56;;;;;;;18.55;9.93;;;10.50;57.20;;;;;;5016598;28;20506;-86
2021/12/11 10:58:33;;;;;;;15.13;9.25;;;10.50;58.00;;;;;;5016112;28;20029;-86
2021/12/11 11:01:24;;;;;;;17.25;10.48;;;10.00;58.60;;;;;;5016253;28;20249;-86
2021/12/11 11:03:58;;;;;;;16.50;9.18;;;10.00;59.20;;;;;;5015945;28;20053;-85
2021/12/11 11:06:25;;;;;;;17.52;9.63;;;9.90;59.20;;;;;;5015972;28;20034;-86
2021/12/11 11:08:51;;;;;;;15.38;9.35;;;10.00;59.70;;;;;;5015940;28;20022;-86
2021/12/11 11:11:20;;;;;;;19.85;13.15;;;10.00;58.80;;;;;;5015744;28;20108;-85
2021/12/11 11:13:46;;;;;;;16.88;9.85;;;10.20;58.60;;;;;;5016077;28;20477;-85
2021/12/11 11:16:15;;;;;;;19.25;11.13;;;10.40;58.60;;;;;;5016009;28;20018;-87
2021/12/11 11:18:41;;;;;;;17.63;10.82;;;10.70;57.40;;;;;;5015842;28;20437;-87
2021/12/11 11:21:14;;;;;;;28.85;15.68;;;10.80;57.50;;;;;;5015726;28;20106;-86
2021/12/11 11:23:43;;;;;;;76.97;43.08;;;11.00;56.90;;;;;;5015934;28;20033;-86
2021/12/11 11:26:16;;;;;;;37.17;22.10;;;11.20;56.60;;;;;;5015994;28;20116;-86
2021/12/11 11:28:42;;;;;;;37.28;22.27;;;11.50;56.70;;;;;;5015766;28;20600;-86
2021/12/11 11:31:18;;;;;;;34.45;19.50;;;11.60;55.90;;;;;;5015586;28;20123;-86
2021/12/11 11:33:45;;;;;;;38.20;22.45;;;11.40;56.20;;;;;;5015767;28;20026;-86
2021/12/11 11:36:15;;;;;;;22.30;12.85;;;11.60;56.50;;;;;;5015711;28;20048;-84
2021/12/11 11:38:44;;;;;;;19.77;11.45;;;11.80;56.00;;;;;;5015593;28;20029;-86
2021/12/11 11:41:14;;;;;;;18.58;11.38;;;11.90;55.90;;;;;;5015976;28;20056;-86
2021/12/11 11:43:41;;;;;;;22.92;13.25;;;11.00;56.20;;;;;;5049928;28;20025;-86
2021/12/11 11:46:08;;;;;;;22.48;13.32;;;10.40;58.50;;;;;;5036430;28;20025;-84
2021/12/11 11:48:39;;;;;;;24.90;13.80;;;10.50;58.60;;;;;;5036190;28;20029;-86
2021/12/11 11:51:10;;;;;;;26.58;14.32;;;10.70;58.50;;;;;;5039306;28;20021;-83
2021/12/11 11:53:36;;;;;;;25.80;13.82;;;11.20;57.50;;;;;;5035852;28;20439;-86
2021/12/11 11:56:10;;;;;;;28.98;15.85;;;11.80;56.60;;;;;;5019407;28;20026;-85
2021/12/11 11:58:36;;;;;;;29.67;16.80;;;11.90;56.30;;;;;;5019395;28;20075;-84
2021/12/11 12:01:08;;;;;;;40.72;24.63;;;11.90;56.20;;;;;;5039319;28;20049;-83
2021/12/11 12:03:34;;;;;;;43.60;28.38;;;11.90;56.30;;;;;;5039119;28;20468;-84
2021/12/11 12:06:05;;;;;;;32.22;16.33;;;11.80;56.20;;;;;;5038274;28;20036;-85
2021/12/11 12:08:33;;;;;;;25.65;14.85;;;11.80;56.40;;;;;;5028217;28;20026;-83
2021/12/11 12:11:00;;;;;;;21.70;13.52;;;11.20;56.40;;;;;;5033960;28;20037;-85
2021/12/11 12:13:27;;;;;;;25.33;14.13;;;11.00;57.70;;;;;;5039037;28;20052;-85
2021/12/11 12:16:03;;;;;;;23.20;13.60;;;11.00;58.00;;;;;;5028914;28;20601;-85
2021/12/11 12:18:29;;;;;;;33.10;21.42;;;11.30;57.40;;;;;;5034834;28;20029;-84
2021/12/11 12:20:59;;;;;;;33.90;20.15;;;11.60;57.00;;;;;;5019061;28;20114;-83
2021/12/11 12:23:31;;;;;;;29.08;17.05;;;11.90;56.40;;;;;;5035550;28;20550;-83
2021/12/11 12:26:01;;;;;;;23.65;13.38;;;12.00;56.10;;;;;;5043602;28;20120;-83
2021/12/11 12:28:28;;;;;;;25.70;14.20;;;12.20;55.50;;;;;;5019191;28;20380;-85
2021/12/11 12:31:01;;;;;;;22.08;12.98;;;12.10;55.50;;;;;;5024924;28;20056;-83
2021/12/11 12:33:28;;;;;;;21.80;12.90;;;12.00;55.90;;;;;;5038586;28;20035;-85
2021/12/11 12:35:55;;;;;;;27.50;18.52;;;11.90;55.70;;;;;;5038745;28;20017;-84
2021/12/11 12:38:23;;;;;;;23.83;12.85;;;11.60;56.30;;;;;;5038755;28;20025;-83
2021/12/11 12:41:13;;;;;;;25.10;14.60;;;11.60;56.70;;;;;;5038215;28;20400;-83
2021/12/11 12:46:26;;;;;;;25.52;14.88;;;11.70;56.40;;;;;;5035539;28;20044;-85
2021/12/11 12:48:52;;;;;;;30.40;18.45;;;11.60;56.70;;;;;;5018177;28;20037;-84
2021/12/11 12:51:18;;;;;;;24.15;13.32;;;12.00;56.40;;;;;;5017785;28;20038;-85
2021/12/11 12:53:44;;;;;;;21.45;12.35;;;11.60;56.10;;;;;;5018026;28;20025;-83
2021/12/11 12:56:21;;;;;;;29.25;16.92;;;10.80;57.60;;;;;;5016641;28;20048;-83
2021/12/11 12:58:56;;;;;;;31.92;19.45;;;11.00;57.80;;;;;;5018069;28;20045;-85
2021/12/11 13:01:33;;;;;;;34.20;20.30;;;11.50;56.90;;;;;;5017781;28;20026;-85
2021/12/11 13:04:03;;;;;;;37.53;21.50;;;11.60;56.80;;;;;;5017963;28;20028;-84
2021/12/11 13:06:33;;;;;;;69.53;36.85;;;11.70;56.50;;;;;;5017685;28;20189;-85
2021/12/11 13:09:09;;;;;;;47.50;26.70;;;11.70;56.80;;;;;;5017960;28;20075;-83